sensor_id;sensor_type;location;lat;lon;timestamp;P1;durP1;ratioP1;P2;durP2;ratioP2
80392;SDS011;69719;45.544;10.218;2024-03-23T00:55:50;32.35;;;20.42;;
80392;SDS011;69719;45.544;10.218;2024-03-23T00:58:15;34.60;;;20.67;;
80392;SDS011;69719;45.544;10.218;2024-03-23T01:00:41;35.83;;;21.80;;
80392;SDS011;69719;45.544;10.218;2024-03-23T01:03:06;36.78;;;21.60;;
80392;SDS011;69719;45.544;10.218;2024-03-23T01:05:31;33.03;;;19.80;;
80392;SDS011;69719;45.544;10.218;2024-03-23T01:07:57;36.33;;;20.45;;
80392;SDS011;69719;45.544;10.218;2024-03-23T01:10:22;32.67;;;19.70;;
80392;SDS011;69719;45.544;10.218;2024-03-23T01:12:48;38.65;;;21.05;;
80392;SDS011;69719;45.544;10.218;2024-03-23T01:15:13;33.50;;;20.27;;
80392;SDS011;69719;45.544;10.218;2024-03-23T01:17:38;35.75;;;20.52;;
80392;SDS011;69719;45.544;10.218;2024-03-23T01:20:04;31.90;;;20.50;;
80392;SDS011;69719;45.544;10.218;2024-03-23T01:22:31;35.15;;;19.88;;
80392;SDS011;69719;45.544;10.218;2024-03-23T01:24:57;33.83;;;19.35;;
80392;SDS011;69719;45.544;10.218;2024-03-23T01:27:22;32.17;;;20.08;;
80392;SDS011;69719;45.544;10.218;2024-03-23T01:29:48;33.75;;;19.88;;
80392;SDS011;69719;45.544;10.218;2024-03-23T01:32:13;34.00;;;20.40;;
80392;SDS011;69719;45.544;10.218;2024-03-23T01:34:39;34.25;;;21.48;;
80392;SDS011;69719;45.544;10.218;2024-03-23T01:37:04;34.00;;;19.98;;
80392;SDS011;69719;45.544;10.218;2024-03-23T01:39:30;32.78;;;19.95;;
80392;SDS011;69719;45.544;10.218;2024-03-23T01:41:55;30.30;;;19.05;;
80392;SDS011;69719;45.544;10.218;2024-03-23T01:44:20;31.30;;;20.00;;
80392;SDS011;69719;45.544;10.218;2024-03-23T01:46:46;30.27;;;18.40;;
80392;SDS011;69719;45.544;10.218;2024-03-23T01:49:12;32.63;;;19.52;;
80392;SDS011;69719;45.544;10.218;2024-03-23T01:51:38;32.78;;;20.35;;
80392;SDS011;69719;45.544;10.218;2024-03-23T01:54:04;33.58;;;20.65;;
80392;SDS011;69719;45.544;10.218;2024-03-23T01:56:32;33.33;;;20.92;;
80392;SDS011;69719;45.544;10.218;2024-03-23T01:59:02;33.47;;;20.92;;
80392;SDS011;69719;45.544;10.218;2024-03-23T02:01:28;31.45;;;19.50;;
80392;SDS011;69719;45.544;10.218;2024-03-23T02:03:53;32.63;;;20.85;;
80392;SDS011;69719;45.544;10.218;2024-03-23T02:06:19;32.88;;;19.55;;
80392;SDS011;69719;45.544;10.218;2024-03-23T02:08:44;33.00;;;20.63;;
80392;SDS011;69719;45.544;10.218;2024-03-23T02:11:10;33.60;;;19.67;;
80392;SDS011;69719;45.544;10.218;2024-03-23T02:13:35;31.77;;;18.33;;
80392;SDS011;69719;45.544;10.218;2024-03-23T02:16:01;31.00;;;18.58;;
80392;SDS011;69719;45.544;10.218;2024-03-23T02:18:26;33.53;;;20.50;;
80392;SDS011;69719;45.544;10.218;2024-03-23T02:20:52;30.85;;;19.30;;
80392;SDS011;69719;45.544;10.218;2024-03-23T02:23:17;31.85;;;19.13;;
80392;SDS011;69719;45.544;10.218;2024-03-23T02:25:43;33.53;;;19.67;;
80392;SDS011;69719;45.544;10.218;2024-03-23T02:28:09;34.40;;;20.30;;
80392;SDS011;69719;45.544;10.218;2024-03-23T02:30:35;32.55;;;18.52;;
80392;SDS011;69719;45.544;10.218;2024-03-23T02:33:00;31.30;;;18.15;;
80392;SDS011;69719;45.544;10.218;2024-03-23T02:35:26;29.85;;;18.25;;
80392;SDS011;69719;45.544;10.218;2024-03-23T02:37:51;34.58;;;20.67;;
80392;SDS011;69719;45.544;10.218;2024-03-23T02:40:18;32.80;;;19.17;;
80392;SDS011;69719;45.544;10.218;2024-03-23T02:42:43;31.83;;;19.17;;
80392;SDS011;69719;45.544;10.218;2024-03-23T02:45:09;31.48;;;19.00;;
80392;SDS011;69719;45.544;10.218;2024-03-23T02:47:34;31.95;;;19.58;;
80392;SDS011;69719;45.544;10.218;2024-03-23T02:50:00;30.35;;;18.30;;
80392;SDS011;69719;45.544;10.218;2024-03-23T02:52:25;35.50;;;19.27;;
80392;SDS011;69719;45.544;10.218;2024-03-23T02:54:50;29.35;;;17.70;;
80392;SDS011;69719;45.544;10.218;2024-03-23T02:57:16;34.13;;;18.63;;
80392;SDS011;69719;45.544;10.218;2024-03-23T02:59:41;33.10;;;18.52;;
80392;SDS011;69719;45.544;10.218;2024-03-23T03:02:07;32.58;;;17.67;;
80392;SDS011;69719;45.544;10.218;2024-03-23T03:04:32;33.53;;;19.27;;
80392;SDS011;69719;45.544;10.218;2024-03-23T03:06:58;34.17;;;18.70;;
80392;SDS011;69719;45.544;10.218;2024-03-23T03:09:23;33.47;;;18.48;;
80392;SDS011;69719;45.544;10.218;2024-03-23T03:11:49;35.70;;;19.38;;
80392;SDS011;69719;45.544;10.218;2024-03-23T03:14:14;31.77;;;18.45;;
80392;SDS011;69719;45.544;10.218;2024-03-23T03:16:40;33.13;;;19.33;;
80392;SDS011;69719;45.544;10.218;2024-03-23T03:19:05;36.80;;;20.75;;
80392;SDS011;69719;45.544;10.218;2024-03-23T03:21:31;32.25;;;19.58;;
80392;SDS011;69719;45.544;10.218;2024-03-23T03:23:57;30.77;;;18.65;;
80392;SDS011;69719;45.544;10.218;2024-03-23T03:26:23;31.90;;;19.05;;
80392;SDS011;69719;45.544;10.218;2024-03-23T03:28:49;32.97;;;19.85;;
80392;SDS011;69719;45.544;10.218;2024-03-23T03:31:15;33.20;;;19.05;;
80392;SDS011;69719;45.544;10.218;2024-03-23T03:33:41;34.63;;;19.15;;
80392;SDS011;69719;45.544;10.218;2024-03-23T03:36:07;32.17;;;20.30;;
80392;SDS011;69719;45.544;10.218;2024-03-23T03:38:32;33.83;;;19.73;;
80392;SDS011;69719;45.544;10.218;2024-03-23T03:41:00;34.40;;;20.27;;
80392;SDS011;69719;45.544;10.218;2024-03-23T03:43:26;39.83;;;20.92;;
80392;SDS011;69719;45.544;10.218;2024-03-23T03:45:52;33.88;;;19.75;;
80392;SDS011;69719;45.544;10.218;2024-03-23T03:48:18;31.80;;;19.92;;
80392;SDS011;69719;45.544;10.218;2024-03-23T03:50:43;38.38;;;20.30;;
80392;SDS011;69719;45.544;10.218;2024-03-23T03:53:09;33.03;;;19.38;;
80392;SDS011;69719;45.544;10.218;2024-03-23T03:55:34;32.25;;;18.42;;
80392;SDS011;69719;45.544;10.218;2024-03-23T03:58:00;49.53;;;23.00;;
80392;SDS011;69719;45.544;10.218;2024-03-23T04:00:25;33.80;;;20.77;;
80392;SDS011;69719;45.544;10.218;2024-03-23T04:02:50;35.40;;;20.88;;
80392;SDS011;69719;45.544;10.218;2024-03-23T04:05:16;34.30;;;20.35;;
80392;SDS011;69719;45.544;10.218;2024-03-23T04:07:42;34.17;;;20.92;;
80392;SDS011;69719;45.544;10.218;2024-03-23T04:10:07;33.58;;;20.50;;
80392;SDS011;69719;45.544;10.218;2024-03-23T04:12:33;34.05;;;21.30;;
80392;SDS011;69719;45.544;10.218;2024-03-23T04:14:59;36.88;;;21.20;;
80392;SDS011;69719;45.544;10.218;2024-03-23T04:17:25;34.17;;;21.17;;
80392;SDS011;69719;45.544;10.218;2024-03-23T04:19:56;38.40;;;23.13;;
80392;SDS011;69719;45.544;10.218;2024-03-23T04:22:22;42.25;;;22.65;;
80392;SDS011;69719;45.544;10.218;2024-03-23T04:24:49;36.97;;;22.33;;
80392;SDS011;69719;45.544;10.218;2024-03-23T04:27:14;35.53;;;21.38;;
80392;SDS011;69719;45.544;10.218;2024-03-23T04:29:40;49.45;;;22.70;;
80392;SDS011;69719;45.544;10.218;2024-03-23T04:32:05;39.60;;;22.52;;
80392;SDS011;69719;45.544;10.218;2024-03-23T04:34:31;37.20;;;22.25;;
80392;SDS011;69719;45.544;10.218;2024-03-23T04:36:58;32.15;;;20.15;;
80392;SDS011;69719;45.544;10.218;2024-03-23T04:39:23;47.13;;;22.20;;
80392;SDS011;69719;45.544;10.218;2024-03-23T04:41:49;37.00;;;20.13;;
80392;SDS011;69719;45.544;10.218;2024-03-23T04:44:15;33.63;;;19.67;;
80392;SDS011;69719;45.544;10.218;2024-03-23T04:46:40;40.78;;;20.80;;
80392;SDS011;69719;45.544;10.218;2024-03-23T04:49:05;35.65;;;21.40;;
80392;SDS011;69719;45.544;10.218;2024-03-23T04:51:35;31.23;;;19.88;;
80392;SDS011;69719;45.544;10.218;2024-03-23T04:54:04;32.50;;;19.67;;
80392;SDS011;69719;45.544;10.218;2024-03-23T04:56:30;34.70;;;20.27;;
80392;SDS011;69719;45.544;10.218;2024-03-23T04:58:57;34.00;;;20.50;;
80392;SDS011;69719;45.544;10.218;2024-03-23T05:01:26;33.45;;;21.55;;
80392;SDS011;69719;45.544;10.218;2024-03-23T05:03:52;36.17;;;21.50;;
80392;SDS011;69719;45.544;10.218;2024-03-23T05:06:18;32.75;;;21.33;;
80392;SDS011;69719;45.544;10.218;2024-03-23T05:08:43;34.90;;;20.77;;
80392;SDS011;69719;45.544;10.218;2024-03-23T05:11:10;33.28;;;22.17;;
80392;SDS011;69719;45.544;10.218;2024-03-23T05:13:35;35.47;;;21.05;;
80392;SDS011;69719;45.544;10.218;2024-03-23T05:16:00;34.38;;;22.52;;
80392;SDS011;69719;45.544;10.218;2024-03-23T05:18:26;35.00;;;21.05;;
80392;SDS011;69719;45.544;10.218;2024-03-23T05:20:56;33.22;;;21.52;;
80392;SDS011;69719;45.544;10.218;2024-03-23T05:23:22;36.97;;;21.17;;
80392;SDS011;69719;45.544;10.218;2024-03-23T05:25:48;38.47;;;22.90;;
80392;SDS011;69719;45.544;10.218;2024-03-23T05:28:14;35.38;;;21.65;;
80392;SDS011;69719;45.544;10.218;2024-03-23T05:30:39;34.28;;;21.92;;
80392;SDS011;69719;45.544;10.218;2024-03-23T05:33:05;39.33;;;22.45;;
80392;SDS011;69719;45.544;10.218;2024-03-23T05:35:31;35.95;;;21.08;;
80392;SDS011;69719;45.544;10.218;2024-03-23T05:37:57;35.20;;;22.42;;
80392;SDS011;69719;45.544;10.218;2024-03-23T05:40:23;37.45;;;22.25;;
80392;SDS011;69719;45.544;10.218;2024-03-23T05:42:49;37.35;;;22.65;;
80392;SDS011;69719;45.544;10.218;2024-03-23T05:45:18;37.55;;;22.02;;
80392;SDS011;69719;45.544;10.218;2024-03-23T05:47:44;38.13;;;24.30;;
80392;SDS011;69719;45.544;10.218;2024-03-23T05:50:09;39.47;;;24.00;;
80392;SDS011;69719;45.544;10.218;2024-03-23T05:52:37;40.78;;;23.55;;
80392;SDS011;69719;45.544;10.218;2024-03-23T05:55:04;34.42;;;22.48;;
80392;SDS011;69719;45.544;10.218;2024-03-23T05:57:30;36.53;;;22.42;;
80392;SDS011;69719;45.544;10.218;2024-03-23T05:59:55;37.38;;;23.52;;
80392;SDS011;69719;45.544;10.218;2024-03-23T06:02:20;38.65;;;22.98;;
80392;SDS011;69719;45.544;10.218;2024-03-23T06:04:46;37.92;;;23.83;;
80392;SDS011;69719;45.544;10.218;2024-03-23T06:07:11;36.55;;;23.48;;
80392;SDS011;69719;45.544;10.218;2024-03-23T06:09:39;41.05;;;24.23;;
80392;SDS011;69719;45.544;10.218;2024-03-23T06:12:05;36.85;;;23.27;;
80392;SDS011;69719;45.544;10.218;2024-03-23T06:14:31;39.35;;;24.08;;
80392;SDS011;69719;45.544;10.218;2024-03-23T06:16:57;37.92;;;24.63;;
80392;SDS011;69719;45.544;10.218;2024-03-23T06:19:23;36.38;;;23.05;;
80392;SDS011;69719;45.544;10.218;2024-03-23T06:21:48;39.80;;;23.55;;
80392;SDS011;69719;45.544;10.218;2024-03-23T06:24:13;35.85;;;23.98;;
80392;SDS011;69719;45.544;10.218;2024-03-23T06:26:39;37.60;;;24.00;;
80392;SDS011;69719;45.544;10.218;2024-03-23T06:29:04;39.42;;;24.05;;
80392;SDS011;69719;45.544;10.218;2024-03-23T06:31:30;35.58;;;22.40;;
80392;SDS011;69719;45.544;10.218;2024-03-23T06:33:56;36.45;;;23.38;;
80392;SDS011;69719;45.544;10.218;2024-03-23T06:36:21;43.63;;;23.95;;
80392;SDS011;69719;45.544;10.218;2024-03-23T06:38:47;41.20;;;24.50;;
80392;SDS011;69719;45.544;10.218;2024-03-23T06:41:12;36.03;;;23.55;;
80392;SDS011;69719;45.544;10.218;2024-03-23T06:43:38;37.00;;;23.23;;
80392;SDS011;69719;45.544;10.218;2024-03-23T06:46:03;39.50;;;24.50;;
80392;SDS011;69719;45.544;10.218;2024-03-23T06:48:29;37.63;;;23.83;;
80392;SDS011;69719;45.544;10.218;2024-03-23T06:50:56;39.55;;;23.80;;
80392;SDS011;69719;45.544;10.218;2024-03-23T06:53:22;41.95;;;24.38;;
80392;SDS011;69719;45.544;10.218;2024-03-23T06:55:51;36.80;;;23.80;;
80392;SDS011;69719;45.544;10.218;2024-03-23T06:58:21;37.95;;;23.60;;
80392;SDS011;69719;45.544;10.218;2024-03-23T07:00:47;40.40;;;25.02;;
80392;SDS011;69719;45.544;10.218;2024-03-23T07:03:13;39.13;;;23.85;;
80392;SDS011;69719;45.544;10.218;2024-03-23T07:05:38;41.40;;;25.45;;
80392;SDS011;69719;45.544;10.218;2024-03-23T07:08:04;39.50;;;25.02;;
80392;SDS011;69719;45.544;10.218;2024-03-23T07:10:30;38.80;;;24.50;;
80392;SDS011;69719;45.544;10.218;2024-03-23T07:12:55;39.97;;;25.73;;
80392;SDS011;69719;45.544;10.218;2024-03-23T07:15:21;41.67;;;25.23;;
80392;SDS011;69719;45.544;10.218;2024-03-23T07:17:47;37.20;;;23.33;;
80392;SDS011;69719;45.544;10.218;2024-03-23T07:20:12;38.60;;;24.08;;
80392;SDS011;69719;45.544;10.218;2024-03-23T07:22:38;38.15;;;23.30;;
80392;SDS011;69719;45.544;10.218;2024-03-23T07:25:04;38.78;;;25.65;;
80392;SDS011;69719;45.544;10.218;2024-03-23T07:27:31;39.95;;;25.45;;
80392;SDS011;69719;45.544;10.218;2024-03-23T07:29:57;39.88;;;26.08;;
80392;SDS011;69719;45.544;10.218;2024-03-23T07:32:22;37.78;;;25.55;;
80392;SDS011;69719;45.544;10.218;2024-03-23T07:34:48;42.88;;;27.08;;
80392;SDS011;69719;45.544;10.218;2024-03-23T07:37:13;42.40;;;26.48;;
80392;SDS011;69719;45.544;10.218;2024-03-23T07:39:39;38.38;;;25.42;;
80392;SDS011;69719;45.544;10.218;2024-03-23T07:42:05;43.88;;;26.25;;
80392;SDS011;69719;45.544;10.218;2024-03-23T07:44:31;41.10;;;26.38;;
80392;SDS011;69719;45.544;10.218;2024-03-23T07:46:56;39.63;;;25.00;;
80392;SDS011;69719;45.544;10.218;2024-03-23T07:49:22;40.78;;;26.27;;
80392;SDS011;69719;45.544;10.218;2024-03-23T07:51:47;41.50;;;26.70;;
80392;SDS011;69719;45.544;10.218;2024-03-23T07:54:13;38.20;;;24.95;;
80392;SDS011;69719;45.544;10.218;2024-03-23T07:56:38;45.25;;;26.45;;
80392;SDS011;69719;45.544;10.218;2024-03-23T07:59:03;42.08;;;25.92;;
80392;SDS011;69719;45.544;10.218;2024-03-23T08:01:29;43.30;;;26.00;;
80392;SDS011;69719;45.544;10.218;2024-03-23T08:03:55;41.80;;;25.02;;
80392;SDS011;69719;45.544;10.218;2024-03-23T08:06:20;39.80;;;25.38;;
80392;SDS011;69719;45.544;10.218;2024-03-23T08:08:48;40.17;;;25.02;;
80392;SDS011;69719;45.544;10.218;2024-03-23T08:11:14;41.80;;;25.80;;
80392;SDS011;69719;45.544;10.218;2024-03-23T08:13:40;43.63;;;25.35;;
80392;SDS011;69719;45.544;10.218;2024-03-23T08:16:07;41.47;;;24.73;;
80392;SDS011;69719;45.544;10.218;2024-03-23T08:18:33;39.10;;;25.05;;
80392;SDS011;69719;45.544;10.218;2024-03-23T08:23:26;40.85;;;25.40;;
80392;SDS011;69719;45.544;10.218;2024-03-23T08:25:57;38.58;;;23.70;;
80392;SDS011;69719;45.544;10.218;2024-03-23T08:28:23;39.33;;;24.05;;
80392;SDS011;69719;45.544;10.218;2024-03-23T08:30:49;40.67;;;24.67;;
80392;SDS011;69719;45.544;10.218;2024-03-23T08:33:14;39.08;;;25.55;;
80392;SDS011;69719;45.544;10.218;2024-03-23T08:35:40;37.85;;;23.38;;
80392;SDS011;69719;45.544;10.218;2024-03-23T08:38:06;35.35;;;22.77;;
80392;SDS011;69719;45.544;10.218;2024-03-23T08:40:32;38.55;;;24.60;;
80392;SDS011;69719;45.544;10.218;2024-03-23T08:42:57;36.75;;;24.67;;
80392;SDS011;69719;45.544;10.218;2024-03-23T08:45:23;37.53;;;24.58;;
80392;SDS011;69719;45.544;10.218;2024-03-23T08:47:49;36.33;;;23.38;;
80392;SDS011;69719;45.544;10.218;2024-03-23T08:50:15;38.92;;;23.10;;
80392;SDS011;69719;45.544;10.218;2024-03-23T08:52:40;38.78;;;22.48;;
80392;SDS011;69719;45.544;10.218;2024-03-23T08:55:06;34.08;;;22.50;;
80392;SDS011;69719;45.544;10.218;2024-03-23T08:57:31;35.00;;;22.02;;
80392;SDS011;69719;45.544;10.218;2024-03-23T08:59:57;36.15;;;22.35;;
80392;SDS011;69719;45.544;10.218;2024-03-23T09:02:23;31.60;;;20.02;;
80392;SDS011;69719;45.544;10.218;2024-03-23T09:04:48;32.35;;;19.20;;
80392;SDS011;69719;45.544;10.218;2024-03-23T09:07:15;29.10;;;18.52;;
80392;SDS011;69719;45.544;10.218;2024-03-23T09:09:41;31.98;;;18.92;;
80392;SDS011;69719;45.544;10.218;2024-03-23T09:12:06;32.42;;;21.25;;
80392;SDS011;69719;45.544;10.218;2024-03-23T09:14:33;32.60;;;21.05;;
80392;SDS011;69719;45.544;10.218;2024-03-23T09:16:59;33.15;;;22.13;;
80392;SDS011;69719;45.544;10.218;2024-03-23T09:19:26;35.50;;;20.02;;
80392;SDS011;69719;45.544;10.218;2024-03-23T09:21:53;33.20;;;21.35;;
80392;SDS011;69719;45.544;10.218;2024-03-23T09:24:19;33.83;;;20.80;;
80392;SDS011;69719;45.544;10.218;2024-03-23T09:26:44;34.95;;;20.33;;
80392;SDS011;69719;45.544;10.218;2024-03-23T09:29:09;33.28;;;21.67;;
80392;SDS011;69719;45.544;10.218;2024-03-23T09:31:35;32.88;;;21.30;;
80392;SDS011;69719;45.544;10.218;2024-03-23T09:34:01;36.00;;;20.33;;
80392;SDS011;69719;45.544;10.218;2024-03-23T09:36:26;32.70;;;19.48;;
80392;SDS011;69719;45.544;10.218;2024-03-23T09:38:52;31.08;;;20.38;;
80392;SDS011;69719;45.544;10.218;2024-03-23T09:41:17;31.50;;;20.92;;
80392;SDS011;69719;45.544;10.218;2024-03-23T09:43:43;30.42;;;19.60;;
80392;SDS011;69719;45.544;10.218;2024-03-23T09:46:08;28.75;;;17.35;;
80392;SDS011;69719;45.544;10.218;2024-03-23T09:48:34;30.20;;;18.13;;
80392;SDS011;69719;45.544;10.218;2024-03-23T09:51:01;33.13;;;19.90;;
80392;SDS011;69719;45.544;10.218;2024-03-23T09:53:27;32.22;;;17.77;;
80392;SDS011;69719;45.544;10.218;2024-03-23T09:55:52;33.83;;;19.95;;
80392;SDS011;69719;45.544;10.218;2024-03-23T09:58:18;32.90;;;21.23;;
80392;SDS011;69719;45.544;10.218;2024-03-23T10:00:44;31.15;;;20.38;;
80392;SDS011;69719;45.544;10.218;2024-03-23T10:03:10;32.63;;;20.70;;
80392;SDS011;69719;45.544;10.218;2024-03-23T10:05:36;32.10;;;21.20;;
80392;SDS011;69719;45.544;10.218;2024-03-23T10:08:17;34.28;;;21.20;;
80392;SDS011;69719;45.544;10.218;2024-03-23T10:10:44;30.10;;;19.23;;
80392;SDS011;69719;45.544;10.218;2024-03-23T10:13:10;31.63;;;19.42;;
80392;SDS011;69719;45.544;10.218;2024-03-23T10:15:48;30.17;;;19.60;;
80392;SDS011;69719;45.544;10.218;2024-03-23T10:18:20;35.47;;;21.23;;
80392;SDS011;69719;45.544;10.218;2024-03-23T10:23:30;35.45;;;21.70;;
80392;SDS011;69719;45.544;10.218;2024-03-23T10:26:11;32.90;;;21.13;;
80392;SDS011;69719;45.544;10.218;2024-03-23T10:28:37;29.75;;;20.27;;
80392;SDS011;69719;45.544;10.218;2024-03-23T10:31:37;30.25;;;20.08;;
80392;SDS011;69719;45.544;10.218;2024-03-23T10:34:06;33.10;;;22.25;;
80392;SDS011;69719;45.544;10.218;2024-03-23T10:36:32;31.42;;;20.92;;
80392;SDS011;69719;45.544;10.218;2024-03-23T10:39:00;34.30;;;22.80;;
80392;SDS011;69719;45.544;10.218;2024-03-23T10:41:26;36.05;;;23.42;;
80392;SDS011;69719;45.544;10.218;2024-03-23T10:43:56;31.95;;;22.23;;
80392;SDS011;69719;45.544;10.218;2024-03-23T10:46:23;33.47;;;21.75;;
80392;SDS011;69719;45.544;10.218;2024-03-23T10:48:48;35.97;;;24.13;;
80392;SDS011;69719;45.544;10.218;2024-03-23T10:51:14;34.55;;;21.63;;
80392;SDS011;69719;45.544;10.218;2024-03-23T10:53:40;37.63;;;22.83;;
80392;SDS011;69719;45.544;10.218;2024-03-23T10:56:06;33.83;;;21.48;;
80392;SDS011;69719;45.544;10.218;2024-03-23T10:58:35;36.10;;;21.90;;
80392;SDS011;69719;45.544;10.218;2024-03-23T11:01:04;34.63;;;21.83;;
80392;SDS011;69719;45.544;10.218;2024-03-23T11:03:30;31.20;;;21.27;;
80392;SDS011;69719;45.544;10.218;2024-03-23T11:05:59;31.35;;;21.25;;
80392;SDS011;69719;45.544;10.218;2024-03-23T11:08:32;33.33;;;21.50;;
80392;SDS011;69719;45.544;10.218;2024-03-23T11:13:50;31.30;;;19.67;;
80392;SDS011;69719;45.544;10.218;2024-03-23T11:16:17;32.78;;;21.60;;
80392;SDS011;69719;45.544;10.218;2024-03-23T11:18:48;30.85;;;20.27;;
80392;SDS011;69719;45.544;10.218;2024-03-23T11:24:16;31.42;;;20.17;;
80392;SDS011;69719;45.544;10.218;2024-03-23T11:26:41;30.20;;;19.58;;
80392;SDS011;69719;45.544;10.218;2024-03-23T11:29:14;33.40;;;18.35;;
80392;SDS011;69719;45.544;10.218;2024-03-23T11:31:49;32.13;;;17.27;;
80392;SDS011;69719;45.544;10.218;2024-03-23T11:34:16;28.80;;;16.48;;
80392;SDS011;69719;45.544;10.218;2024-03-23T11:36:45;28.73;;;16.52;;
80392;SDS011;69719;45.544;10.218;2024-03-23T11:39:12;32.75;;;17.05;;
80392;SDS011;69719;45.544;10.218;2024-03-23T11:44:19;25.77;;;14.10;;
80392;SDS011;69719;45.544;10.218;2024-03-23T11:46:48;24.47;;;14.03;;
80392;SDS011;69719;45.544;10.218;2024-03-23T11:49:21;28.02;;;14.63;;
80392;SDS011;69719;45.544;10.218;2024-03-23T11:51:51;25.65;;;15.27;;
80392;SDS011;69719;45.544;10.218;2024-03-23T11:54:22;25.20;;;14.23;;
80392;SDS011;69719;45.544;10.218;2024-03-23T12:02:00;27.90;;;16.40;;
80392;SDS011;69719;45.544;10.218;2024-03-23T12:04:29;28.58;;;16.45;;
80392;SDS011;69719;45.544;10.218;2024-03-23T12:07:13;26.02;;;14.88;;
80392;SDS011;69719;45.544;10.218;2024-03-23T12:09:40;25.90;;;13.75;;
80392;SDS011;69719;45.544;10.218;2024-03-23T12:12:10;26.17;;;14.15;;
80392;SDS011;69719;45.544;10.218;2024-03-23T12:14:42;28.73;;;14.68;;
80392;SDS011;69719;45.544;10.218;2024-03-23T12:17:25;23.13;;;11.43;;
80392;SDS011;69719;45.544;10.218;2024-03-23T12:19:51;19.13;;;9.93;;
80392;SDS011;69719;45.544;10.218;2024-03-23T12:22:20;17.83;;;8.93;;
80392;SDS011;69719;45.544;10.218;2024-03-23T12:24:45;18.77;;;11.02;;
80392;SDS011;69719;45.544;10.218;2024-03-23T12:27:11;22.50;;;12.85;;
80392;SDS011;69719;45.544;10.218;2024-03-23T12:29:36;24.58;;;13.45;;
80392;SDS011;69719;45.544;10.218;2024-03-23T12:32:04;25.67;;;14.18;;
80392;SDS011;69719;45.544;10.218;2024-03-23T12:34:30;22.77;;;13.48;;
80392;SDS011;69719;45.544;10.218;2024-03-23T12:36:56;23.35;;;13.52;;
80392;SDS011;69719;45.544;10.218;2024-03-23T12:39:22;26.63;;;14.05;;
80392;SDS011;69719;45.544;10.218;2024-03-23T12:41:47;25.63;;;13.50;;
80392;SDS011;69719;45.544;10.218;2024-03-23T12:44:13;25.50;;;15.52;;
80392;SDS011;69719;45.544;10.218;2024-03-23T12:46:40;29.95;;;18.45;;
80392;SDS011;69719;45.544;10.218;2024-03-23T12:49:06;23.13;;;14.10;;
80392;SDS011;69719;45.544;10.218;2024-03-23T12:51:32;27.17;;;16.00;;
80392;SDS011;69719;45.544;10.218;2024-03-23T12:53:58;25.45;;;14.38;;
80392;SDS011;69719;45.544;10.218;2024-03-23T12:56:23;23.10;;;15.05;;
80392;SDS011;69719;45.544;10.218;2024-03-23T12:58:49;25.30;;;14.63;;
80392;SDS011;69719;45.544;10.218;2024-03-23T13:01:16;25.50;;;15.75;;
80392;SDS011;69719;45.544;10.218;2024-03-23T13:03:42;23.55;;;14.60;;
80392;SDS011;69719;45.544;10.218;2024-03-23T13:06:09;26.80;;;14.98;;
80392;SDS011;69719;45.544;10.218;2024-03-23T13:08:35;25.45;;;15.80;;
80392;SDS011;69719;45.544;10.218;2024-03-23T13:11:01;29.23;;;15.57;;
80392;SDS011;69719;45.544;10.218;2024-03-23T13:13:26;24.83;;;15.25;;
80392;SDS011;69719;45.544;10.218;2024-03-23T13:15:52;28.25;;;15.43;;
80392;SDS011;69719;45.544;10.218;2024-03-23T13:18:17;28.48;;;16.55;;
80392;SDS011;69719;45.544;10.218;2024-03-23T13:20:42;27.38;;;15.95;;
80392;SDS011;69719;45.544;10.218;2024-03-23T13:23:08;26.45;;;15.75;;
80392;SDS011;69719;45.544;10.218;2024-03-23T13:25:33;25.42;;;15.55;;
80392;SDS011;69719;45.544;10.218;2024-03-23T13:27:59;28.75;;;17.50;;
80392;SDS011;69719;45.544;10.218;2024-03-23T13:30:26;31.67;;;18.27;;
80392;SDS011;69719;45.544;10.218;2024-03-23T13:32:51;26.45;;;15.45;;
80392;SDS011;69719;45.544;10.218;2024-03-23T13:35:17;27.08;;;16.60;;
80392;SDS011;69719;45.544;10.218;2024-03-23T13:37:43;30.38;;;17.08;;
80392;SDS011;69719;45.544;10.218;2024-03-23T13:40:08;36.00;;;16.75;;
80392;SDS011;69719;45.544;10.218;2024-03-23T13:42:34;29.15;;;17.15;;
80392;SDS011;69719;45.544;10.218;2024-03-23T13:45:02;24.75;;;16.55;;
80392;SDS011;69719;45.544;10.218;2024-03-23T13:47:27;27.50;;;15.52;;
80392;SDS011;69719;45.544;10.218;2024-03-23T13:49:53;26.35;;;14.98;;
80392;SDS011;69719;45.544;10.218;2024-03-23T13:52:18;28.20;;;16.23;;
80392;SDS011;69719;45.544;10.218;2024-03-23T13:54:47;26.17;;;16.35;;
80392;SDS011;69719;45.544;10.218;2024-03-23T13:57:13;23.33;;;14.95;;
80392;SDS011;69719;45.544;10.218;2024-03-23T13:59:39;25.13;;;14.82;;
80392;SDS011;69719;45.544;10.218;2024-03-23T14:02:04;24.88;;;14.85;;
80392;SDS011;69719;45.544;10.218;2024-03-23T14:04:30;26.27;;;16.33;;
80392;SDS011;69719;45.544;10.218;2024-03-23T14:06:55;26.98;;;16.08;;
80392;SDS011;69719;45.544;10.218;2024-03-23T14:09:21;26.90;;;15.93;;
80392;SDS011;69719;45.544;10.218;2024-03-23T14:11:48;26.88;;;16.13;;
80392;SDS011;69719;45.544;10.218;2024-03-23T14:14:14;29.63;;;15.63;;
80392;SDS011;69719;45.544;10.218;2024-03-23T14:16:43;23.30;;;14.77;;
80392;SDS011;69719;45.544;10.218;2024-03-23T14:19:09;26.83;;;15.75;;
80392;SDS011;69719;45.544;10.218;2024-03-23T14:21:34;30.55;;;18.80;;
80392;SDS011;69719;45.544;10.218;2024-03-23T14:24:00;26.20;;;16.20;;
80392;SDS011;69719;45.544;10.218;2024-03-23T14:26:26;26.77;;;15.77;;
80392;SDS011;69719;45.544;10.218;2024-03-23T14:28:52;26.67;;;15.82;;
80392;SDS011;69719;45.544;10.218;2024-03-23T14:31:17;28.40;;;16.75;;
80392;SDS011;69719;45.544;10.218;2024-03-23T14:33:43;27.35;;;16.30;;
80392;SDS011;69719;45.544;10.218;2024-03-23T14:36:12;27.83;;;16.45;;
80392;SDS011;69719;45.544;10.218;2024-03-23T14:38:38;28.63;;;16.15;;
80392;SDS011;69719;45.544;10.218;2024-03-23T14:41:03;30.48;;;17.25;;
80392;SDS011;69719;45.544;10.218;2024-03-23T14:43:29;27.70;;;15.93;;
80392;SDS011;69719;45.544;10.218;2024-03-23T14:48:38;24.40;;;14.02;;
80392;SDS011;69719;45.544;10.218;2024-03-23T14:51:04;23.02;;;13.65;;
80392;SDS011;69719;45.544;10.218;2024-03-23T14:53:34;25.20;;;13.88;;
80392;SDS011;69719;45.544;10.218;2024-03-23T14:56:05;22.90;;;13.60;;
80392;SDS011;69719;45.544;10.218;2024-03-23T14:58:31;25.65;;;15.50;;
80392;SDS011;69719;45.544;10.218;2024-03-23T15:01:03;29.80;;;15.23;;
80392;SDS011;69719;45.544;10.218;2024-03-23T15:03:29;28.10;;;15.35;;
80392;SDS011;69719;45.544;10.218;2024-03-23T15:05:55;26.80;;;15.80;;
80392;SDS011;69719;45.544;10.218;2024-03-23T15:08:22;27.17;;;16.17;;
80392;SDS011;69719;45.544;10.218;2024-03-23T15:10:47;25.52;;;15.63;;
80392;SDS011;69719;45.544;10.218;2024-03-23T15:13:13;28.13;;;16.35;;
80392;SDS011;69719;45.544;10.218;2024-03-23T15:15:40;32.15;;;15.95;;
80392;SDS011;69719;45.544;10.218;2024-03-23T15:18:09;30.83;;;15.90;;
80392;SDS011;69719;45.544;10.218;2024-03-23T15:20:41;25.05;;;14.98;;